sensor_id;sensor_type;location;lat;lon;timestamp;P1;durP1;ratioP1;P2;durP2;ratioP2
41436;SDS011;27178;49.460;10.850;2023-02-28T00:01:29;3.70;;;3.17;;
41436;SDS011;27178;49.460;10.850;2023-02-28T00:03:57;5.23;;;3.50;;
41436;SDS011;27178;49.460;10.850;2023-02-28T00:06:26;3.43;;;3.13;;
41436;SDS011;27178;49.460;10.850;2023-02-28T00:08:56;3.63;;;2.80;;
41436;SDS011;27178;49.460;10.850;2023-02-28T00:11:24;4.73;;;3.00;;
41436;SDS011;27178;49.460;10.850;2023-02-28T00:13:53;6.30;;;3.30;;
41436;SDS011;27178;49.460;10.850;2023-02-28T00:16:22;3.60;;;2.67;;
41436;SDS011;27178;49.460;10.850;2023-02-28T00:18:50;3.13;;;2.83;;
41436;SDS011;27178;49.460;10.850;2023-02-28T00:21:19;3.90;;;2.80;;
41436;SDS011;27178;49.460;10.850;2023-02-28T00:23:48;3.03;;;2.67;;
41436;SDS011;27178;49.460;10.850;2023-02-28T00:26:17;4.37;;;3.30;;
41436;SDS011;27178;49.460;10.850;2023-02-28T00:28:47;3.83;;;3.10;;
41436;SDS011;27178;49.460;10.850;2023-02-28T00:31:15;3.73;;;2.90;;
41436;SDS011;27178;49.460;10.850;2023-02-28T00:33:44;3.77;;;3.27;;
41436;SDS011;27178;49.460;10.850;2023-02-28T00:36:13;3.97;;;3.13;;
41436;SDS011;27178;49.460;10.850;2023-02-28T00:38:41;3.43;;;3.00;;
41436;SDS011;27178;49.460;10.850;2023-02-28T00:41:09;2.90;;;2.60;;
41436;SDS011;27178;49.460;10.850;2023-02-28T00:43:39;4.30;;;2.83;;
41436;SDS011;27178;49.460;10.850;2023-02-28T00:46:07;2.90;;;2.60;;
41436;SDS011;27178;49.460;10.850;2023-02-28T00:48:36;4.00;;;3.00;;
41436;SDS011;27178;49.460;10.850;2023-02-28T00:51:04;3.17;;;2.87;;
41436;SDS011;27178;49.460;10.850;2023-02-28T00:53:33;4.20;;;3.00;;
41436;SDS011;27178;49.460;10.850;2023-02-28T00:56:01;3.37;;;3.07;;
41436;SDS011;27178;49.460;10.850;2023-02-28T00:58:29;3.50;;;2.93;;
41436;SDS011;27178;49.460;10.850;2023-02-28T01:00:59;3.40;;;2.97;;
41436;SDS011;27178;49.460;10.850;2023-02-28T01:03:27;3.97;;;3.13;;
41436;SDS011;27178;49.460;10.850;2023-02-28T01:05:56;3.63;;;3.20;;
41436;SDS011;27178;49.460;10.850;2023-02-28T01:08:24;4.07;;;3.43;;
41436;SDS011;27178;49.460;10.850;2023-02-28T01:10:53;4.30;;;3.10;;
41436;SDS011;27178;49.460;10.850;2023-02-28T01:13:21;4.00;;;3.20;;
41436;SDS011;27178;49.460;10.850;2023-02-28T01:15:52;2.93;;;2.63;;
41436;SDS011;27178;49.460;10.850;2023-02-28T01:18:24;2.50;;;2.23;;
41436;SDS011;27178;49.460;10.850;2023-02-28T01:20:52;3.13;;;2.80;;
41436;SDS011;27178;49.460;10.850;2023-02-28T01:23:21;4.17;;;3.10;;
41436;SDS011;27178;49.460;10.850;2023-02-28T01:25:50;3.13;;;2.60;;
41436;SDS011;27178;49.460;10.850;2023-02-28T01:28:19;6.33;;;3.40;;
41436;SDS011;27178;49.460;10.850;2023-02-28T01:30:48;3.07;;;2.80;;
41436;SDS011;27178;49.460;10.850;2023-02-28T01:33:17;3.30;;;3.00;;
41436;SDS011;27178;49.460;10.850;2023-02-28T01:35:47;3.10;;;2.80;;
41436;SDS011;27178;49.460;10.850;2023-02-28T01:38:15;3.27;;;2.97;;
41436;SDS011;27178;49.460;10.850;2023-02-28T01:40:48;3.00;;;2.70;;
41436;SDS011;27178;49.460;10.850;2023-02-28T01:43:20;3.23;;;2.90;;
41436;SDS011;27178;49.460;10.850;2023-02-28T01:45:51;4.30;;;3.20;;
41436;SDS011;27178;49.460;10.850;2023-02-28T01:48:21;4.37;;;3.20;;
41436;SDS011;27178;49.460;10.850;2023-02-28T01:50:55;3.57;;;2.87;;
41436;SDS011;27178;49.460;10.850;2023-02-28T01:53:29;3.63;;;3.20;;
41436;SDS011;27178;49.460;10.850;2023-02-28T01:55:59;4.87;;;2.77;;
41436;SDS011;27178;49.460;10.850;2023-02-28T01:58:31;3.07;;;2.77;;
41436;SDS011;27178;49.460;10.850;2023-02-28T02:01:00;3.40;;;3.10;;
41436;SDS011;27178;49.460;10.850;2023-02-28T02:03:29;4.77;;;2.80;;
41436;SDS011;27178;49.460;10.850;2023-02-28T02:05:59;3.50;;;3.20;;
41436;SDS011;27178;49.460;10.850;2023-02-28T02:08:29;3.60;;;3.20;;
41436;SDS011;27178;49.460;10.850;2023-02-28T02:10:58;3.80;;;3.03;;
41436;SDS011;27178;49.460;10.850;2023-02-28T02:13:32;4.50;;;3.63;;
41436;SDS011;27178;49.460;10.850;2023-02-28T02:16:11;3.27;;;2.97;;
41436;SDS011;27178;49.460;10.850;2023-02-28T02:18:52;3.40;;;3.10;;
41436;SDS011;27178;49.460;10.850;2023-02-28T02:21:32;3.57;;;3.10;;
41436;SDS011;27178;49.460;10.850;2023-02-28T02:28:25;3.27;;;2.57;;
41436;SDS011;27178;49.460;10.850;2023-02-28T02:31:26;3.40;;;3.10;;
41436;SDS011;27178;49.460;10.850;2023-02-28T02:34:10;3.50;;;3.20;;
41436;SDS011;27178;49.460;10.850;2023-02-28T02:36:58;3.93;;;3.30;;
41436;SDS011;27178;49.460;10.850;2023-02-28T02:39:34;3.43;;;3.13;;
41436;SDS011;27178;49.460;10.850;2023-02-28T02:42:11;3.40;;;3.07;;
41436;SDS011;27178;49.460;10.850;2023-02-28T02:44:43;6.33;;;3.57;;
41436;SDS011;27178;49.460;10.850;2023-02-28T02:47:17;3.90;;;3.10;;
41436;SDS011;27178;49.460;10.850;2023-02-28T02:49:50;3.50;;;3.10;;
41436;SDS011;27178;49.460;10.850;2023-02-28T02:52:21;6.67;;;3.27;;
41436;SDS011;27178;49.460;10.850;2023-02-28T02:54:52;4.80;;;3.40;;
41436;SDS011;27178;49.460;10.850;2023-02-28T02:57:25;5.50;;;3.60;;
41436;SDS011;27178;49.460;10.850;2023-02-28T02:59:58;4.83;;;3.43;;
41436;SDS011;27178;49.460;10.850;2023-02-28T03:02:31;3.53;;;3.23;;
41436;SDS011;27178;49.460;10.850;2023-02-28T03:05:02;3.60;;;3.30;;
41436;SDS011;27178;49.460;10.850;2023-02-28T03:07:35;3.70;;;3.40;;
41436;SDS011;27178;49.460;10.850;2023-02-28T03:13:21;3.90;;;3.37;;
41436;SDS011;27178;49.460;10.850;2023-02-28T03:16:07;4.17;;;3.50;;
41436;SDS011;27178;49.460;10.850;2023-02-28T03:18:48;3.83;;;3.43;;
41436;SDS011;27178;49.460;10.850;2023-02-28T03:21:27;3.70;;;3.30;;
41436;SDS011;27178;49.460;10.850;2023-02-28T03:24:02;4.13;;;3.73;;
41436;SDS011;27178;49.460;10.850;2023-02-28T03:26:36;3.70;;;3.40;;
41436;SDS011;27178;49.460;10.850;2023-02-28T03:29:12;4.20;;;3.80;;
41436;SDS011;27178;49.460;10.850;2023-02-28T03:31:47;4.33;;;3.63;;
41436;SDS011;27178;49.460;10.850;2023-02-28T03:34:19;3.43;;;3.13;;
41436;SDS011;27178;49.460;10.850;2023-02-28T03:36:55;5.23;;;3.80;;
41436;SDS011;27178;49.460;10.850;2023-02-28T03:39:30;4.20;;;3.40;;
41436;SDS011;27178;49.460;10.850;2023-02-28T03:42:05;3.83;;;3.43;;
41436;SDS011;27178;49.460;10.850;2023-02-28T03:44:38;4.23;;;3.83;;
41436;SDS011;27178;49.460;10.850;2023-02-28T03:47:09;3.87;;;3.43;;
41436;SDS011;27178;49.460;10.850;2023-02-28T03:49:40;4.00;;;3.60;;
41436;SDS011;27178;49.460;10.850;2023-02-28T03:52:15;4.73;;;4.00;;
41436;SDS011;27178;49.460;10.850;2023-02-28T03:54:48;4.70;;;3.87;;
41436;SDS011;27178;49.460;10.850;2023-02-28T03:57:21;5.20;;;3.70;;
41436;SDS011;27178;49.460;10.850;2023-02-28T03:59:56;4.97;;;3.60;;
41436;SDS011;27178;49.460;10.850;2023-02-28T04:02:27;4.10;;;3.70;;
41436;SDS011;27178;49.460;10.850;2023-02-28T04:04:56;4.87;;;4.13;;
41436;SDS011;27178;49.460;10.850;2023-02-28T04:07:28;5.37;;;3.97;;
41436;SDS011;27178;49.460;10.850;2023-02-28T04:09:57;4.23;;;3.77;;
41436;SDS011;27178;49.460;10.850;2023-02-28T04:12:25;4.30;;;3.77;;
41436;SDS011;27178;49.460;10.850;2023-02-28T04:14:54;4.27;;;3.87;;
41436;SDS011;27178;49.460;10.850;2023-02-28T04:17:23;4.03;;;3.73;;
41436;SDS011;27178;49.460;10.850;2023-02-28T04:19:51;4.87;;;4.30;;
41436;SDS011;27178;49.460;10.850;2023-02-28T04:22:20;4.60;;;4.20;;
41436;SDS011;27178;49.460;10.850;2023-02-28T04:24:50;4.50;;;4.10;;
41436;SDS011;27178;49.460;10.850;2023-02-28T04:27:20;4.80;;;4.17;;
41436;SDS011;27178;49.460;10.850;2023-02-28T04:29:48;5.23;;;4.53;;
41436;SDS011;27178;49.460;10.850;2023-02-28T04:32:17;5.47;;;4.97;;
41436;SDS011;27178;49.460;10.850;2023-02-28T04:34:45;5.57;;;4.97;;
41436;SDS011;27178;49.460;10.850;2023-02-28T04:37:14;5.70;;;5.20;;
41436;SDS011;27178;49.460;10.850;2023-02-28T04:39:42;6.47;;;4.97;;
41436;SDS011;27178;49.460;10.850;2023-02-28T04:42:12;6.80;;;5.97;;
41436;SDS011;27178;49.460;10.850;2023-02-28T04:44:41;5.73;;;5.23;;
41436;SDS011;27178;49.460;10.850;2023-02-28T04:47:09;6.90;;;6.13;;
41436;SDS011;27178;49.460;10.850;2023-02-28T04:49:38;5.83;;;5.30;;
41436;SDS011;27178;49.460;10.850;2023-02-28T04:52:07;6.23;;;5.47;;
41436;SDS011;27178;49.460;10.850;2023-02-28T04:54:37;7.27;;;5.50;;
41436;SDS011;27178;49.460;10.850;2023-02-28T04:57:06;5.97;;;5.40;;
41436;SDS011;27178;49.460;10.850;2023-02-28T04:59:36;6.03;;;5.40;;
41436;SDS011;27178;49.460;10.850;2023-02-28T05:02:04;5.10;;;4.63;;
41436;SDS011;27178;49.460;10.850;2023-02-28T05:04:34;6.57;;;4.83;;
41436;SDS011;27178;49.460;10.850;2023-02-28T05:07:03;6.57;;;4.97;;
41436;SDS011;27178;49.460;10.850;2023-02-28T05:09:32;5.40;;;4.90;;
41436;SDS011;27178;49.460;10.850;2023-02-28T05:12:00;6.97;;;5.07;;
41436;SDS011;27178;49.460;10.850;2023-02-28T05:14:30;5.47;;;4.93;;
41436;SDS011;27178;49.460;10.850;2023-02-28T05:16:59;5.37;;;4.87;;
41436;SDS011;27178;49.460;10.850;2023-02-28T05:19:28;5.40;;;4.67;;
41436;SDS011;27178;49.460;10.850;2023-02-28T05:21:56;6.27;;;5.67;;
41436;SDS011;27178;49.460;10.850;2023-02-28T05:24:24;6.60;;;5.70;;
41436;SDS011;27178;49.460;10.850;2023-02-28T05:26:54;6.80;;;6.10;;
41436;SDS011;27178;49.460;10.850;2023-02-28T05:29:22;7.63;;;6.40;;
41436;SDS011;27178;49.460;10.850;2023-02-28T05:31:51;7.10;;;6.20;;
41436;SDS011;27178;49.460;10.850;2023-02-28T05:34:20;5.73;;;5.03;;
41436;SDS011;27178;49.460;10.850;2023-02-28T05:36:49;6.97;;;5.67;;
41436;SDS011;27178;49.460;10.850;2023-02-28T05:39:17;6.60;;;5.60;;
41436;SDS011;27178;49.460;10.850;2023-02-28T05:41:45;6.47;;;5.43;;
41436;SDS011;27178;49.460;10.850;2023-02-28T05:44:13;5.63;;;5.00;;
41436;SDS011;27178;49.460;10.850;2023-02-28T05:46:43;6.20;;;5.17;;
41436;SDS011;27178;49.460;10.850;2023-02-28T05:49:11;6.57;;;5.60;;
41436;SDS011;27178;49.460;10.850;2023-02-28T05:51:41;6.27;;;5.67;;
41436;SDS011;27178;49.460;10.850;2023-02-28T05:54:09;7.10;;;6.03;;
41436;SDS011;27178;49.460;10.850;2023-02-28T05:56:39;6.00;;;5.40;;
41436;SDS011;27178;49.460;10.850;2023-02-28T05:59:10;6.63;;;5.90;;
41436;SDS011;27178;49.460;10.850;2023-02-28T06:01:38;6.23;;;5.63;;
41436;SDS011;27178;49.460;10.850;2023-02-28T06:04:08;5.80;;;5.20;;
41436;SDS011;27178;49.460;10.850;2023-02-28T06:06:57;6.00;;;5.40;;
41436;SDS011;27178;49.460;10.850;2023-02-28T06:09:26;6.07;;;5.47;;
41436;SDS011;27178;49.460;10.850;2023-02-28T06:11:54;7.60;;;6.00;;
41436;SDS011;27178;49.460;10.850;2023-02-28T06:14:22;6.70;;;6.10;;
41436;SDS011;27178;49.460;10.850;2023-02-28T06:16:50;6.70;;;6.10;;
41436;SDS011;27178;49.460;10.850;2023-02-28T06:19:18;6.20;;;5.60;;
41436;SDS011;27178;49.460;10.850;2023-02-28T06:21:49;7.63;;;6.10;;
41436;SDS011;27178;49.460;10.850;2023-02-28T06:24:20;7.20;;;6.07;;
41436;SDS011;27178;49.460;10.850;2023-02-28T06:26:48;6.97;;;6.27;;
41436;SDS011;27178;49.460;10.850;2023-02-28T06:29:17;7.20;;;6.43;;
41436;SDS011;27178;49.460;10.850;2023-02-28T06:31:45;6.73;;;5.97;;
41436;SDS011;27178;49.460;10.850;2023-02-28T06:34:14;8.03;;;6.40;;
41436;SDS011;27178;49.460;10.850;2023-02-28T06:36:44;6.77;;;6.07;;
41436;SDS011;27178;49.460;10.850;2023-02-28T06:39:12;12.50;;;6.00;;
41436;SDS011;27178;49.460;10.850;2023-02-28T06:41:42;7.13;;;6.43;;
41436;SDS011;27178;49.460;10.850;2023-02-28T06:44:21;7.87;;;7.10;;
41436;SDS011;27178;49.460;10.850;2023-02-28T06:46:50;7.43;;;6.53;;
41436;SDS011;27178;49.460;10.850;2023-02-28T06:49:18;8.43;;;6.47;;
41436;SDS011;27178;49.460;10.850;2023-02-28T06:51:46;7.90;;;6.37;;
41436;SDS011;27178;49.460;10.850;2023-02-28T06:54:15;6.77;;;6.07;;
41436;SDS011;27178;49.460;10.850;2023-02-28T06:56:45;6.73;;;6.03;;
41436;SDS011;27178;49.460;10.850;2023-02-28T06:59:14;7.90;;;6.33;;
41436;SDS011;27178;49.460;10.850;2023-02-28T07:01:43;7.27;;;6.23;;
41436;SDS011;27178;49.460;10.850;2023-02-28T07:04:11;6.53;;;5.93;;
41436;SDS011;27178;49.460;10.850;2023-02-28T07:06:40;7.17;;;6.33;;
41436;SDS011;27178;49.460;10.850;2023-02-28T07:09:09;7.73;;;6.93;;
41436;SDS011;27178;49.460;10.850;2023-02-28T07:11:38;8.13;;;7.33;;
41436;SDS011;27178;49.460;10.850;2023-02-28T07:14:08;9.77;;;8.00;;
41436;SDS011;27178;49.460;10.850;2023-02-28T07:16:37;9.50;;;8.50;;
41436;SDS011;27178;49.460;10.850;2023-02-28T07:19:05;9.37;;;8.23;;
41436;SDS011;27178;49.460;10.850;2023-02-28T07:21:34;9.80;;;8.80;;
41436;SDS011;27178;49.460;10.850;2023-02-28T07:24:02;8.43;;;7.63;;
41436;SDS011;27178;49.460;10.850;2023-02-28T07:26:31;9.27;;;7.23;;
41436;SDS011;27178;49.460;10.850;2023-02-28T07:29:00;7.80;;;6.47;;
41436;SDS011;27178;49.460;10.850;2023-02-28T07:31:30;7.40;;;6.43;;
41436;SDS011;27178;49.460;10.850;2023-02-28T07:33:58;8.63;;;6.80;;
41436;SDS011;27178;49.460;10.850;2023-02-28T07:36:27;7.27;;;6.57;;
41436;SDS011;27178;49.460;10.850;2023-02-28T07:38:55;8.20;;;6.70;;
41436;SDS011;27178;49.460;10.850;2023-02-28T07:41:25;8.63;;;6.57;;
41436;SDS011;27178;49.460;10.850;2023-02-28T07:43:54;6.80;;;6.10;;
41436;SDS011;27178;49.460;10.850;2023-02-28T07:46:23;7.63;;;6.77;;
41436;SDS011;27178;49.460;10.850;2023-02-28T07:48:57;7.93;;;7.10;;
41436;SDS011;27178;49.460;10.850;2023-02-28T07:51:26;7.87;;;6.97;;
41436;SDS011;27178;49.460;10.850;2023-02-28T07:53:55;9.83;;;7.13;;
41436;SDS011;27178;49.460;10.850;2023-02-28T07:56:24;7.27;;;6.57;;
41436;SDS011;27178;49.460;10.850;2023-02-28T07:58:53;7.63;;;6.77;;
41436;SDS011;27178;49.460;10.850;2023-02-28T08:01:22;7.87;;;7.07;;
41436;SDS011;27178;49.460;10.850;2023-02-28T08:03:50;7.73;;;6.77;;
41436;SDS011;27178;49.460;10.850;2023-02-28T08:06:22;7.40;;;6.50;;
41436;SDS011;27178;49.460;10.850;2023-02-28T08:08:53;7.40;;;6.43;;
41436;SDS011;27178;49.460;10.850;2023-02-28T08:11:22;10.63;;;6.80;;
41436;SDS011;27178;49.460;10.850;2023-02-28T08:13:51;7.87;;;6.97;;
41436;SDS011;27178;49.460;10.850;2023-02-28T08:16:19;7.87;;;7.07;;
41436;SDS011;27178;49.460;10.850;2023-02-28T08:18:49;8.60;;;7.07;;
41436;SDS011;27178;49.460;10.850;2023-02-28T08:21:18;8.83;;;7.93;;
41436;SDS011;27178;49.460;10.850;2023-02-28T08:23:49;7.93;;;7.13;;
41436;SDS011;27178;49.460;10.850;2023-02-28T08:26:18;9.50;;;7.97;;
41436;SDS011;27178;49.460;10.850;2023-02-28T08:28:47;8.17;;;7.30;;
41436;SDS011;27178;49.460;10.850;2023-02-28T08:31:15;7.80;;;6.90;;
41436;SDS011;27178;49.460;10.850;2023-02-28T08:33:45;7.83;;;7.13;;
41436;SDS011;27178;49.460;10.850;2023-02-28T08:36:14;8.47;;;7.60;;
41436;SDS011;27178;49.460;10.850;2023-02-28T08:38:43;7.90;;;7.17;;
41436;SDS011;27178;49.460;10.850;2023-02-28T08:41:14;7.73;;;6.97;;
41436;SDS011;27178;49.460;10.850;2023-02-28T08:43:42;8.13;;;7.30;;
41436;SDS011;27178;49.460;10.850;2023-02-28T08:46:11;10.67;;;6.90;;
41436;SDS011;27178;49.460;10.850;2023-02-28T08:48:40;7.30;;;6.60;;
41436;SDS011;27178;49.460;10.850;2023-02-28T08:51:12;7.97;;;7.17;;
41436;SDS011;27178;49.460;10.850;2023-02-28T08:53:42;7.20;;;6.50;;
41436;SDS011;27178;49.460;10.850;2023-02-28T08:56:11;9.10;;;7.17;;
41436;SDS011;27178;49.460;10.850;2023-02-28T08:58:43;7.47;;;6.70;;
41436;SDS011;27178;49.460;10.850;2023-02-28T09:01:13;7.67;;;6.87;;
41436;SDS011;27178;49.460;10.850;2023-02-28T09:03:43;7.77;;;6.97;;
41436;SDS011;27178;49.460;10.850;2023-02-28T09:06:13;8.87;;;7.37;;
41436;SDS011;27178;49.460;10.850;2023-02-28T09:08:42;8.33;;;7.53;;
41436;SDS011;27178;49.460;10.850;2023-02-28T09:11:11;8.77;;;7.87;;
41436;SDS011;27178;49.460;10.850;2023-02-28T09:13:42;9.47;;;7.77;;
41436;SDS011;27178;49.460;10.850;2023-02-28T09:16:11;10.57;;;7.50;;
41436;SDS011;27178;49.460;10.850;2023-02-28T09:18:40;7.80;;;7.10;;
41436;SDS011;27178;49.460;10.850;2023-02-28T09:21:10;8.13;;;7.33;;
41436;SDS011;27178;49.460;10.850;2023-02-28T09:23:42;8.57;;;7.47;;
41436;SDS011;27178;49.460;10.850;2023-02-28T09:26:14;7.87;;;6.83;;
41436;SDS011;27178;49.460;10.850;2023-02-28T09:28:44;8.97;;;7.83;;
41436;SDS011;27178;49.460;10.850;2023-02-28T09:31:12;11.10;;;7.27;;
41436;SDS011;27178;49.460;10.850;2023-02-28T09:33:42;8.47;;;7.23;;
41436;SDS011;27178;49.460;10.850;2023-02-28T09:36:10;7.80;;;6.70;;
41436;SDS011;27178;49.460;10.850;2023-02-28T09:38:39;7.37;;;6.53;;
41436;SDS011;27178;49.460;10.850;2023-02-28T09:41:11;7.10;;;6.50;;
41436;SDS011;27178;49.460;10.850;2023-02-28T09:43:44;7.57;;;6.80;;
41436;SDS011;27178;49.460;10.850;2023-02-28T09:46:20;7.47;;;6.83;;
41436;SDS011;27178;49.460;10.850;2023-02-28T09:48:54;7.97;;;7.13;;
41436;SDS011;27178;49.460;10.850;2023-02-28T09:51:40;7.70;;;6.87;;
41436;SDS011;27178;49.460;10.850;2023-02-28T09:54:16;7.43;;;6.73;;
41436;SDS011;27178;49.460;10.850;2023-02-28T09:56:49;7.40;;;6.70;;
41436;SDS011;27178;49.460;10.850;2023-02-28T09:59:26;7.70;;;6.97;;
41436;SDS011;27178;49.460;10.850;2023-02-28T10:02:07;8.17;;;7.37;;
41436;SDS011;27178;49.460;10.850;2023-02-28T10:04:43;8.30;;;7.50;;
41436;SDS011;27178;49.460;10.850;2023-02-28T10:07:24;8.27;;;7.03;;
41436;SDS011;27178;49.460;10.850;2023-02-28T10:10:07;8.73;;;7.20;;
41436;SDS011;27178;49.460;10.850;2023-02-28T10:12:50;8.30;;;7.50;;
41436;SDS011;27178;49.460;10.850;2023-02-28T10:15:22;7.87;;;7.13;;
41436;SDS011;27178;49.460;10.850;2023-02-28T10:17:53;8.10;;;7.40;;
41436;SDS011;27178;49.460;10.850;2023-02-28T10:20:35;7.43;;;6.70;;
41436;SDS011;27178;49.460;10.850;2023-02-28T10:23:09;7.50;;;6.80;;
41436;SDS011;27178;49.460;10.850;2023-02-28T10:25:40;7.47;;;6.67;;
41436;SDS011;27178;49.460;10.850;2023-02-28T10:28:16;7.40;;;6.57;;
41436;SDS011;27178;49.460;10.850;2023-02-28T10:30:46;7.93;;;7.23;;
41436;SDS011;27178;49.460;10.850;2023-02-28T10:33:21;7.27;;;6.57;;
41436;SDS011;27178;49.460;10.850;2023-02-28T10:35:52;7.07;;;6.43;;
41436;SDS011;27178;49.460;10.850;2023-02-28T10:38:21;7.87;;;6.33;;
41436;SDS011;27178;49.460;10.850;2023-02-28T10:40:52;7.10;;;6.40;;
41436;SDS011;27178;49.460;10.850;2023-02-28T10:43:33;7.03;;;6.23;;
41436;SDS011;27178;49.460;10.850;2023-02-28T10:46:09;6.70;;;5.93;;
41436;SDS011;27178;49.460;10.850;2023-02-28T10:48:42;6.70;;;6.00;;
41436;SDS011;27178;49.460;10.850;2023-02-28T10:51:15;7.20;;;6.50;;
41436;SDS011;27178;49.460;10.850;2023-02-28T10:53:47;7.37;;;5.57;;
41436;SDS011;27178;49.460;10.850;2023-02-28T10:56:27;6.93;;;6.10;;
41436;SDS011;27178;49.460;10.850;2023-02-28T10:58:59;6.60;;;5.90;;
41436;SDS011;27178;49.460;10.850;2023-02-28T11:01:36;7.17;;;6.47;;
41436;SDS011;27178;49.460;10.850;2023-02-28T11:04:16;6.67;;;6.07;;
41436;SDS011;27178;49.460;10.850;2023-02-28T11:06:48;6.37;;;5.77;;
41436;SDS011;27178;49.460;10.850;2023-02-28T11:09:27;6.70;;;5.97;;
41436;SDS011;27178;49.460;10.850;2023-02-28T11:11:58;7.03;;;5.83;;
41436;SDS011;27178;49.460;10.850;2023-02-28T11:14:28;6.93;;;5.57;;
41436;SDS011;27178;49.460;10.850;2023-02-28T11:17:02;7.33;;;5.83;;
41436;SDS011;27178;49.460;10.850;2023-02-28T11:19:49;5.73;;;5.03;;
41436;SDS011;27178;49.460;10.850;2023-02-28T11:22:21;6.20;;;5.70;;
41436;SDS011;27178;49.460;10.850;2023-02-28T11:24:55;6.93;;;6.27;;
41436;SDS011;27178;49.460;10.850;2023-02-28T11:27:46;6.17;;;5.57;;
41436;SDS011;27178;49.460;10.850;2023-02-28T11:30:28;9.10;;;6.27;;
41436;SDS011;27178;49.460;10.850;2023-02-28T11:32:58;5.70;;;5.20;;
41436;SDS011;27178;49.460;10.850;2023-02-28T11:35:28;8.07;;;5.70;;
41436;SDS011;27178;49.460;10.850;2023-02-28T11:38:01;5.90;;;5.30;;
41436;SDS011;27178;49.460;10.850;2023-02-28T11:40:31;6.47;;;5.87;;
41436;SDS011;27178;49.460;10.850;2023-02-28T11:43:09;6.40;;;5.80;;
41436;SDS011;27178;49.460;10.850;2023-02-28T11:45:59;7.00;;;6.07;;
41436;SDS011;27178;49.460;10.850;2023-02-28T11:48:39;6.23;;;5.63;;
41436;SDS011;27178;49.460;10.850;2023-02-28T11:51:15;7.00;;;6.30;;
41436;SDS011;27178;49.460;10.850;2023-02-28T11:53:50;6.38;;;5.75;;
41436;SDS011;27178;49.460;10.850;2023-02-28T11:56:28;6.35;;;5.72;;
41436;SDS011;27178;49.460;10.850;2023-02-28T11:59:03;5.75;;;5.25;;
41436;SDS011;27178;49.460;10.850;2023-02-28T12:01:51;5.63;;;5.10;;
41436;SDS011;27178;49.460;10.850;2023-02-28T12:04:36;5.18;;;4.68;;
41436;SDS011;27178;49.460;10.850;2023-02-28T12:07:15;6.07;;;5.47;;
41436;SDS011;27178;49.460;10.850;2023-02-28T12:09:54;5.20;;;4.70;;
41436;SDS011;27178;49.460;10.850;2023-02-28T12:12:37;8.23;;;5.82;;
41436;SDS011;27178;49.460;10.850;2023-02-28T12:15:24;6.35;;;5.75;;
41436;SDS011;27178;49.460;10.850;2023-02-28T12:18:07;6.10;;;5.57;;
41436;SDS011;27178;49.460;10.850;2023-02-28T12:20:57;5.57;;;5.07;;
41436;SDS011;27178;49.460;10.850;2023-02-28T12:23:41;6.60;;;5.90;;
41436;SDS011;27178;49.460;10.850;2023-02-28T12:26:19;7.15;;;5.80;;
41436;SDS011;27178;49.460;10.850;2023-02-28T12:28:51;5.90;;;5.40;;
41436;SDS011;27178;49.460;10.850;2023-02-28T12:31:24;6.03;;;5.43;;
41436;SDS011;27178;49.460;10.850;2023-02-28T12:33:59;5.80;;;5.20;;
41436;SDS011;27178;49.460;10.850;2023-02-28T12:36:30;6.32;;;5.65;;
41436;SDS011;27178;49.460;10.850;2023-02-28T12:39:00;4.95;;;4.50;;
41436;SDS011;27178;49.460;10.850;2023-02-28T12:41:33;6.35;;;5.45;;
41436;SDS011;27178;49.460;10.850;2023-02-28T12:44:06;5.93;;;5.40;;
41436;SDS011;27178;49.460;10.850;2023-02-28T12:46:40;8.07;;;5.22;;
41436;SDS011;27178;49.460;10.850;2023-02-28T12:49:15;5.78;;;5.18;;
41436;SDS011;27178;49.460;10.850;2023-02-28T12:51:45;6.38;;;5.68;;
41436;SDS011;27178;49.460;10.850;2023-02-28T12:54:16;6.80;;;5.75;;
41436;SDS011;27178;49.460;10.850;2023-02-28T12:56:54;5.43;;;4.93;;
41436;SDS011;27178;49.460;10.850;2023-02-28T12:59:32;5.47;;;4.97;;
41436;SDS011;27178;49.460;10.850;2023-02-28T13:02:18;5.80;;;5.20;;
41436;SDS011;27178;49.460;10.850;2023-02-28T13:08:07;5.82;;;5.32;;
41436;SDS011;27178;49.460;10.850;2023-02-28T13:11:04;5.47;;;4.97;;
41436;SDS011;27178;49.460;10.850;2023-02-28T13:13:46;6.05;;;5.20;;
41436;SDS011;27178;49.460;10.850;2023-02-28T13:16:15;5.90;;;5.30;;
41436;SDS011;27178;49.460;10.850;2023-02-28T13:18:45;11.43;;;9.48;;
41436;SDS011;27178;49.460;10.850;2023-02-28T13:21:21;10.93;;;8.30;;
41436;SDS011;27178;49.460;10.850;2023-02-28T13:23:59;7.50;;;5.97;;
41436;SDS011;27178;49.460;10.850;2023-02-28T13:29:58;6.15;;;5.55;;
41436;SDS011;27178;49.460;10.850;2023-02-28T13:32:31;7.70;;;6.55;;
41436;SDS011;27178;49.460;10.850;2023-02-28T13:35:12;11.98;;;8.40;;
41436;SDS011;27178;49.460;10.850;2023-02-28T13:44:04;9.80;;;6.68;;
41436;SDS011;27178;49.460;10.850;2023-02-28T13:46:34;8.32;;;6.15;;
41436;SDS011;27178;49.460;10.850;2023-02-28T13:49:23;9.25;;;7.32;;
41436;SDS011;27178;49.460;10.850;2023-02-28T13:51:55;20.20;;;16.40;;
41436;SDS011;27178;49.460;10.850;2023-02-28T13:54:39;14.00;;;10.98;;
41436;SDS011;27178;49.460;10.850;2023-02-28T13:57:17;13.27;;;11.43;;
41436;SDS011;27178;49.460;10.850;2023-02-28T13:59:54;10.95;;;9.15;;
41436;SDS011;27178;49.460;10.850;2023-02-28T14:02:42;18.88;;;13.18;;
41436;SDS011;27178;49.460;10.850;2023-02-28T14:05:21;12.38;;;10.20;;
41436;SDS011;27178;49.460;10.850;2023-02-28T14:07:53;9.57;;;7.78;;
41436;SDS011;27178;49.460;10.850;2023-02-28T14:10:25;7.65;;;6.93;;
41436;SDS011;27178;49.460;10.850;2023-02-28T14:13:00;7.35;;;6.13;;
41436;SDS011;27178;49.460;10.850;2023-02-28T14:15:38;6.53;;;5.97;;
41436;SDS011;27178;49.460;10.850;2023-02-28T14:21:03;6.53;;;5.93;;
41436;SDS011;27178;49.460;10.850;2023-02-28T14:23:50;7.63;;;5.70;;
41436;SDS011;27178;49.460;10.850;2023-02-28T14:32:35;6.35;;;5.75;;
41436;SDS011;27178;49.460;10.850;2023-02-28T14:35:18;9.13;;;5.78;;
41436;SDS011;27178;49.460;10.850;2023-02-28T14:37:56;6.22;;;5.63;;
41436;SDS011;27178;49.460;10.850;2023-02-28T14:40:26;5.97;;;5.40;;
41436;SDS011;27178;49.460;10.850;2023-02-28T14:42:57;6.20;;;5.63;;
41436;SDS011;27178;49.460;10.850;2023-02-28T14:45:28;6.15;;;5.55;;
41436;SDS011;27178;49.460;10.850;2023-02-28T14:47:59;5.82;;;5.32;;
41436;SDS011;27178;49.460;10.850;2023-02-28T14:50:29;5.90;;;5.30;;
41436;SDS011;27178;49.460;10.850;2023-02-28T14:52:59;5.72;;;5.22;;
41436;SDS011;27178;49.460;10.850;2023-02-28T14:55:29;6.68;;;6.00;;
41436;SDS011;27178;49.460;10.850;2023-02-28T14:57:59;6.05;;;5.43;;
41436;SDS011;27178;49.460;10.850;2023-02-28T15:00:31;6.05;;;5.45;;
41436;SDS011;27178;49.460;10.850;2023-02-28T15:03:11;6.40;;;5.80;;
41436;SDS011;27178;49.460;10.850;2023-02-28T15:05:54;5.75;;;5.20;;
41436;SDS011;27178;49.460;10.850;2023-02-28T15:08:23;8.43;;;5.43;;
41436;SDS011;27178;49.460;10.850;2023-02-28T15:10:56;6.20;;;5.63;;
41436;SDS011;27178;49.460;10.850;2023-02-28T15:13:30;6.53;;;5.93;;
41436;SDS011;27178;49.460;10.850;2023-02-28T15:16:05;6.07;;;5.47;;
41436;SDS011;27178;49.460;10.850;2023-02-28T15:18:42;5.95;;;5.35;;
41436;SDS011;27178;49.460;10.850;2023-02-28T15:21:15;8.40;;;7.07;;
41436;SDS011;27178;49.460;10.850;2023-02-28T15:23:49;8.63;;;7.82;;
41436;SDS011;27178;49.460;10.850;2023-02-28T15:26:20;8.00;;;7.25;;
41436;SDS011;27178;49.460;10.850;2023-02-28T15:28:53;7.28;;;6.57;;
41436;SDS011;27178;49.460;10.850;2023-02-28T15:31:27;8.20;;;6.60;;
41436;SDS011;27178;49.460;10.850;2023-02-28T15:34:16;7.20;;;6.50;;